Gas Wisdom — H9CC — position and weather

sailwx.info

Track history (hours):
 
Tides and Currents Weather Stations Pressure Air Temp Water Temp Dewpoint Dewpoint Depression Visibility Wind Speed Wind Dir Waves Ship Positions

Gas Wisdom

Last reported at 2017-Jun-23 01:37 UTC. Time now 2017-Jun-23 13:56 UTC.
Position N 22°46' E 119°51'.

Length 225 m; draft 11.7 m.

Type: Tanker. MMSI: 373435000.

Date/timePositionNaut miles runAvg speedWind from/ knotsBaromVisibWave heightAir tempDewpointWater temp
2017-Jun-23 01:37N 22°46' E 119°51'  
2017-Jun-18 09:09N 01°14' E 104°03'212.9
2017-Jun-18 09:00N 01°14' E 104°01'611.8
2017-Jun-18 08:30N 01°13' E 103°55'611.4
2017-Jun-18 08:00N 01°11' E 103°50'713.5
2017-Jun-18 07:30N 01°06' E 103°45'713.7
2017-Jun-18 07:00N 01°03' E 103°39'713.7
2017-Jun-18 06:31N 01°06' E 103°33'713.9
2017-Jun-18 06:00N 01°10' E 103°27'713.9
2017-Jun-18 05:30N 01°13' E 103°21'6113.4
2017-Jun-18 00:56N 01°46' E 102°30'  
Track history (hours):
 
Tides and Currents Weather Stations Pressure Air Temp Water Temp Dewpoint Dewpoint Depression Visibility Wind Speed Wind Dir Waves Ship Positions

Gas Wisdom

Last reported at 2017-Jun-23 01:37 UTC. Time now 2017-Jun-23 13:56 UTC.
Position N 22°46' E 119°51'.

Length 225 m; draft 11.7 m.

Type: Tanker. MMSI: 373435000.

Date/timePositionNaut miles runAvg speedWind from/ knotsBaromVisibWave heightAir tempDewpointWater temp
2017-Jun-23 01:37N 22°46' E 119°51'  
2017-Jun-18 09:09N 01°14' E 104°03'212.9
2017-Jun-18 09:00N 01°14' E 104°01'611.8
2017-Jun-18 08:30N 01°13' E 103°55'611.4
2017-Jun-18 08:00N 01°11' E 103°50'713.5
2017-Jun-18 07:30N 01°06' E 103°45'713.7
2017-Jun-18 07:00N 01°03' E 103°39'713.7
2017-Jun-18 06:31N 01°06' E 103°33'713.9
2017-Jun-18 06:00N 01°10' E 103°27'713.9
2017-Jun-18 05:30N 01°13' E 103°21'6113.4
2017-Jun-18 00:56N 01°46' E 102°30'  

Dump ship's entire track history